sensor_id;sensor_type;location;lat;lon;timestamp;P1;durP1;ratioP1;P2;durP2;ratioP2
46875;SDS011;32866;50.160;14.768;2023-03-05T00:02:21;8.00;;;4.95;;
46875;SDS011;32866;50.160;14.768;2023-03-05T00:04:47;8.07;;;4.78;;
46875;SDS011;32866;50.160;14.768;2023-03-05T00:07:12;19.73;;;5.03;;
46875;SDS011;32866;50.160;14.768;2023-03-05T00:09:38;12.73;;;4.70;;
46875;SDS011;32866;50.160;14.768;2023-03-05T00:12:04;9.95;;;4.13;;
46875;SDS011;32866;50.160;14.768;2023-03-05T00:14:29;9.50;;;5.03;;
46875;SDS011;32866;50.160;14.768;2023-03-05T00:16:55;10.25;;;3.95;;
46875;SDS011;32866;50.160;14.768;2023-03-05T00:19:20;11.60;;;5.63;;
46875;SDS011;32866;50.160;14.768;2023-03-05T00:21:45;12.15;;;4.93;;
46875;SDS011;32866;50.160;14.768;2023-03-05T00:24:12;13.75;;;6.38;;
46875;SDS011;32866;50.160;14.768;2023-03-05T00:26:40;12.83;;;5.23;;
46875;SDS011;32866;50.160;14.768;2023-03-05T00:29:06;9.02;;;5.18;;
46875;SDS011;32866;50.160;14.768;2023-03-05T00:31:33;10.17;;;5.97;;
46875;SDS011;32866;50.160;14.768;2023-03-05T00:34:00;13.50;;;4.97;;
46875;SDS011;32866;50.160;14.768;2023-03-05T00:36:28;6.63;;;4.10;;
46875;SDS011;32866;50.160;14.768;2023-03-05T00:38:54;14.48;;;5.25;;
46875;SDS011;32866;50.160;14.768;2023-03-05T00:41:20;10.77;;;4.55;;
46875;SDS011;32866;50.160;14.768;2023-03-05T00:43:45;6.72;;;4.35;;
46875;SDS011;32866;50.160;14.768;2023-03-05T00:46:11;10.88;;;4.80;;
46875;SDS011;32866;50.160;14.768;2023-03-05T00:48:36;11.57;;;5.65;;
46875;SDS011;32866;50.160;14.768;2023-03-05T00:51:02;10.75;;;5.22;;
46875;SDS011;32866;50.160;14.768;2023-03-05T00:53:27;13.65;;;5.40;;
46875;SDS011;32866;50.160;14.768;2023-03-05T00:55:53;11.77;;;4.75;;
46875;SDS011;32866;50.160;14.768;2023-03-05T00:58:18;10.63;;;5.60;;
46875;SDS011;32866;50.160;14.768;2023-03-05T01:00:43;17.23;;;5.60;;
46875;SDS011;32866;50.160;14.768;2023-03-05T01:03:09;11.93;;;5.82;;
46875;SDS011;32866;50.160;14.768;2023-03-05T01:05:35;14.10;;;5.72;;
46875;SDS011;32866;50.160;14.768;2023-03-05T01:08:00;10.07;;;5.63;;
46875;SDS011;32866;50.160;14.768;2023-03-05T01:10:26;10.27;;;4.68;;
46875;SDS011;32866;50.160;14.768;2023-03-05T01:12:52;14.70;;;5.80;;
46875;SDS011;32866;50.160;14.768;2023-03-05T01:15:18;9.27;;;5.00;;
46875;SDS011;32866;50.160;14.768;2023-03-05T01:17:43;9.80;;;5.05;;
46875;SDS011;32866;50.160;14.768;2023-03-05T01:20:10;9.27;;;5.07;;
46875;SDS011;32866;50.160;14.768;2023-03-05T01:22:38;9.47;;;5.77;;
46875;SDS011;32866;50.160;14.768;2023-03-05T01:25:03;13.60;;;6.82;;
46875;SDS011;32866;50.160;14.768;2023-03-05T01:27:29;16.30;;;5.15;;
46875;SDS011;32866;50.160;14.768;2023-03-05T01:29:54;10.48;;;5.07;;
46875;SDS011;32866;50.160;14.768;2023-03-05T01:32:19;6.63;;;4.22;;
46875;SDS011;32866;50.160;14.768;2023-03-05T01:34:45;15.75;;;6.40;;
46875;SDS011;32866;50.160;14.768;2023-03-05T01:37:10;8.43;;;4.45;;
46875;SDS011;32866;50.160;14.768;2023-03-05T01:39:36;9.45;;;4.60;;
46875;SDS011;32866;50.160;14.768;2023-03-05T01:42:01;8.52;;;5.13;;
46875;SDS011;32866;50.160;14.768;2023-03-05T01:44:29;9.03;;;4.93;;
46875;SDS011;32866;50.160;14.768;2023-03-05T01:46:55;14.83;;;5.33;;
46875;SDS011;32866;50.160;14.768;2023-03-05T01:49:22;7.82;;;4.53;;
46875;SDS011;32866;50.160;14.768;2023-03-05T01:54:24;6.17;;;4.03;;
46875;SDS011;32866;50.160;14.768;2023-03-05T01:56:54;14.47;;;5.13;;
46875;SDS011;32866;50.160;14.768;2023-03-05T01:59:23;12.87;;;5.10;;
46875;SDS011;32866;50.160;14.768;2023-03-05T02:01:52;7.90;;;4.53;;
46875;SDS011;32866;50.160;14.768;2023-03-05T02:04:19;10.60;;;4.53;;
46875;SDS011;32866;50.160;14.768;2023-03-05T02:06:47;8.83;;;4.97;;
46875;SDS011;32866;50.160;14.768;2023-03-05T02:09:14;13.45;;;6.10;;
46875;SDS011;32866;50.160;14.768;2023-03-05T02:11:39;14.75;;;5.63;;
46875;SDS011;32866;50.160;14.768;2023-03-05T02:14:05;12.10;;;5.40;;
46875;SDS011;32866;50.160;14.768;2023-03-05T02:16:32;12.80;;;6.00;;
46875;SDS011;32866;50.160;14.768;2023-03-05T02:19:05;9.40;;;5.83;;
46875;SDS011;32866;50.160;14.768;2023-03-05T02:21:37;8.33;;;5.33;;
46875;SDS011;32866;50.160;14.768;2023-03-05T02:24:04;10.00;;;4.27;;
46875;SDS011;32866;50.160;14.768;2023-03-05T02:26:30;12.20;;;5.60;;
46875;SDS011;32866;50.160;14.768;2023-03-05T02:28:56;10.07;;;5.13;;
46875;SDS011;32866;50.160;14.768;2023-03-05T02:31:25;12.40;;;4.63;;
46875;SDS011;32866;50.160;14.768;2023-03-05T02:33:50;11.00;;;4.80;;
46875;SDS011;32866;50.160;14.768;2023-03-05T02:36:18;10.57;;;5.37;;
46875;SDS011;32866;50.160;14.768;2023-03-05T02:38:45;9.35;;;5.60;;
46875;SDS011;32866;50.160;14.768;2023-03-05T02:41:11;14.27;;;6.03;;
46875;SDS011;32866;50.160;14.768;2023-03-05T02:43:37;14.07;;;6.20;;
46875;SDS011;32866;50.160;14.768;2023-03-05T02:46:03;9.20;;;5.82;;
46875;SDS011;32866;50.160;14.768;2023-03-05T02:50:54;11.20;;;6.03;;
46875;SDS011;32866;50.160;14.768;2023-03-05T02:53:21;12.35;;;5.45;;
46875;SDS011;32866;50.160;14.768;2023-03-05T02:55:47;13.50;;;7.03;;
46875;SDS011;32866;50.160;14.768;2023-03-05T02:58:14;12.83;;;6.60;;
46875;SDS011;32866;50.160;14.768;2023-03-05T03:03:05;15.37;;;6.50;;
46875;SDS011;32866;50.160;14.768;2023-03-05T03:05:30;8.27;;;6.13;;
46875;SDS011;32866;50.160;14.768;2023-03-05T03:07:56;13.18;;;6.40;;
46875;SDS011;32866;50.160;14.768;2023-03-05T03:10:21;10.38;;;5.80;;
46875;SDS011;32866;50.160;14.768;2023-03-05T03:12:46;12.70;;;6.95;;
46875;SDS011;32866;50.160;14.768;2023-03-05T03:15:13;23.13;;;7.20;;
46875;SDS011;32866;50.160;14.768;2023-03-05T03:17:41;12.77;;;6.77;;
46875;SDS011;32866;50.160;14.768;2023-03-05T03:20:07;11.35;;;6.70;;
46875;SDS011;32866;50.160;14.768;2023-03-05T03:22:35;9.73;;;5.87;;
46875;SDS011;32866;50.160;14.768;2023-03-05T03:25:01;10.57;;;6.38;;
46875;SDS011;32866;50.160;14.768;2023-03-05T03:27:28;12.77;;;6.60;;
46875;SDS011;32866;50.160;14.768;2023-03-05T03:29:54;9.65;;;6.50;;
46875;SDS011;32866;50.160;14.768;2023-03-05T03:32:19;9.32;;;4.88;;
46875;SDS011;32866;50.160;14.768;2023-03-05T03:34:44;12.30;;;6.38;;
46875;SDS011;32866;50.160;14.768;2023-03-05T03:37:12;12.83;;;7.00;;
46875;SDS011;32866;50.160;14.768;2023-03-05T03:39:38;14.23;;;6.87;;
46875;SDS011;32866;50.160;14.768;2023-03-05T03:42:04;14.38;;;7.22;;
46875;SDS011;32866;50.160;14.768;2023-03-05T03:44:29;13.27;;;7.75;;
46875;SDS011;32866;50.160;14.768;2023-03-05T03:46:55;12.40;;;6.57;;
46875;SDS011;32866;50.160;14.768;2023-03-05T03:49:21;13.35;;;6.72;;
46875;SDS011;32866;50.160;14.768;2023-03-05T03:51:48;17.33;;;8.23;;
46875;SDS011;32866;50.160;14.768;2023-03-05T03:54:15;11.57;;;5.47;;
46875;SDS011;32866;50.160;14.768;2023-03-05T03:56:41;10.00;;;6.83;;
46875;SDS011;32866;50.160;14.768;2023-03-05T03:59:07;10.68;;;6.22;;
46875;SDS011;32866;50.160;14.768;2023-03-05T04:01:33;9.00;;;6.25;;
46875;SDS011;32866;50.160;14.768;2023-03-05T04:03:59;16.45;;;6.82;;
46875;SDS011;32866;50.160;14.768;2023-03-05T04:06:24;14.30;;;7.75;;
46875;SDS011;32866;50.160;14.768;2023-03-05T04:08:49;8.90;;;6.72;;
46875;SDS011;32866;50.160;14.768;2023-03-05T04:11:15;15.10;;;7.38;;
46875;SDS011;32866;50.160;14.768;2023-03-05T04:13:43;13.83;;;7.27;;
46875;SDS011;32866;50.160;14.768;2023-03-05T04:16:09;15.15;;;6.68;;
46875;SDS011;32866;50.160;14.768;2023-03-05T04:18:34;11.27;;;6.70;;
46875;SDS011;32866;50.160;14.768;2023-03-05T04:20:59;14.50;;;7.72;;
46875;SDS011;32866;50.160;14.768;2023-03-05T04:23:25;13.45;;;7.53;;
46875;SDS011;32866;50.160;14.768;2023-03-05T04:25:50;15.82;;;8.32;;
46875;SDS011;32866;50.160;14.768;2023-03-05T04:28:15;18.08;;;7.63;;
46875;SDS011;32866;50.160;14.768;2023-03-05T04:30:41;16.40;;;7.82;;
46875;SDS011;32866;50.160;14.768;2023-03-05T04:33:07;12.65;;;7.15;;
46875;SDS011;32866;50.160;14.768;2023-03-05T04:35:32;10.65;;;6.55;;
46875;SDS011;32866;50.160;14.768;2023-03-05T04:37:58;8.23;;;5.25;;
46875;SDS011;32866;50.160;14.768;2023-03-05T04:40:23;10.55;;;6.25;;
46875;SDS011;32866;50.160;14.768;2023-03-05T04:42:48;9.15;;;6.53;;
46875;SDS011;32866;50.160;14.768;2023-03-05T04:45:14;13.35;;;6.30;;
46875;SDS011;32866;50.160;14.768;2023-03-05T04:47:41;9.37;;;5.97;;
46875;SDS011;32866;50.160;14.768;2023-03-05T04:50:07;16.13;;;8.73;;
46875;SDS011;32866;50.160;14.768;2023-03-05T04:52:33;11.50;;;6.37;;
46875;SDS011;32866;50.160;14.768;2023-03-05T04:54:58;18.23;;;7.85;;
46875;SDS011;32866;50.160;14.768;2023-03-05T04:57:24;10.32;;;6.70;;
46875;SDS011;32866;50.160;14.768;2023-03-05T04:59:49;7.40;;;6.22;;
46875;SDS011;32866;50.160;14.768;2023-03-05T05:02:14;14.35;;;6.50;;
46875;SDS011;32866;50.160;14.768;2023-03-05T05:04:40;13.13;;;6.95;;
46875;SDS011;32866;50.160;14.768;2023-03-05T05:07:09;11.73;;;6.33;;
46875;SDS011;32866;50.160;14.768;2023-03-05T05:09:35;9.98;;;6.45;;
46875;SDS011;32866;50.160;14.768;2023-03-05T05:12:01;9.70;;;6.67;;
46875;SDS011;32866;50.160;14.768;2023-03-05T05:14:26;10.15;;;6.40;;
46875;SDS011;32866;50.160;14.768;2023-03-05T05:16:52;8.23;;;6.07;;
46875;SDS011;32866;50.160;14.768;2023-03-05T05:19:17;7.57;;;5.80;;
46875;SDS011;32866;50.160;14.768;2023-03-05T05:21:42;10.95;;;7.15;;
46875;SDS011;32866;50.160;14.768;2023-03-05T05:24:08;14.57;;;6.82;;
46875;SDS011;32866;50.160;14.768;2023-03-05T05:26:33;9.90;;;4.63;;
46875;SDS011;32866;50.160;14.768;2023-03-05T05:28:59;7.72;;;5.85;;
46875;SDS011;32866;50.160;14.768;2023-03-05T05:31:24;7.43;;;4.50;;
46875;SDS011;32866;50.160;14.768;2023-03-05T05:33:49;8.95;;;4.07;;
46875;SDS011;32866;50.160;14.768;2023-03-05T05:36:15;6.88;;;4.68;;
46875;SDS011;32866;50.160;14.768;2023-03-05T05:38:43;6.13;;;4.40;;
46875;SDS011;32866;50.160;14.768;2023-03-05T05:41:12;4.75;;;3.15;;
46875;SDS011;32866;50.160;14.768;2023-03-05T05:43:40;6.67;;;2.97;;
46875;SDS011;32866;50.160;14.768;2023-03-05T05:46:06;3.50;;;2.95;;
46875;SDS011;32866;50.160;14.768;2023-03-05T05:48:35;9.80;;;4.20;;
46875;SDS011;32866;50.160;14.768;2023-03-05T05:51:04;5.13;;;3.63;;
46875;SDS011;32866;50.160;14.768;2023-03-05T05:53:32;3.70;;;2.93;;
46875;SDS011;32866;50.160;14.768;2023-03-05T05:55:57;4.70;;;3.28;;
46875;SDS011;32866;50.160;14.768;2023-03-05T05:58:23;6.68;;;3.33;;
46875;SDS011;32866;50.160;14.768;2023-03-05T06:03:51;7.23;;;4.00;;
46875;SDS011;32866;50.160;14.768;2023-03-05T06:06:18;7.40;;;3.45;;
46875;SDS011;32866;50.160;14.768;2023-03-05T06:08:45;6.10;;;3.57;;
46875;SDS011;32866;50.160;14.768;2023-03-05T06:11:11;6.72;;;3.83;;
46875;SDS011;32866;50.160;14.768;2023-03-05T06:13:37;5.45;;;3.80;;
46875;SDS011;32866;50.160;14.768;2023-03-05T06:16:04;5.30;;;4.10;;
46875;SDS011;32866;50.160;14.768;2023-03-05T06:18:32;7.23;;;3.50;;
46875;SDS011;32866;50.160;14.768;2023-03-05T06:20:59;3.93;;;3.00;;
46875;SDS011;32866;50.160;14.768;2023-03-05T06:23:26;4.90;;;3.60;;
46875;SDS011;32866;50.160;14.768;2023-03-05T06:25:52;5.80;;;3.10;;
46875;SDS011;32866;50.160;14.768;2023-03-05T06:28:18;4.85;;;3.55;;
46875;SDS011;32866;50.160;14.768;2023-03-05T06:30:44;4.90;;;3.88;;
46875;SDS011;32866;50.160;14.768;2023-03-05T06:33:09;4.63;;;3.13;;
46875;SDS011;32866;50.160;14.768;2023-03-05T06:35:38;5.72;;;3.80;;
46875;SDS011;32866;50.160;14.768;2023-03-05T06:38:05;5.60;;;3.90;;
46875;SDS011;32866;50.160;14.768;2023-03-05T06:40:31;4.67;;;3.00;;
46875;SDS011;32866;50.160;14.768;2023-03-05T06:42:56;5.65;;;3.45;;
46875;SDS011;32866;50.160;14.768;2023-03-05T06:45:22;5.30;;;3.22;;
46875;SDS011;32866;50.160;14.768;2023-03-05T06:47:47;3.92;;;2.67;;
46875;SDS011;32866;50.160;14.768;2023-03-05T06:50:12;7.03;;;3.92;;
46875;SDS011;32866;50.160;14.768;2023-03-05T06:52:38;8.20;;;4.82;;
46875;SDS011;32866;50.160;14.768;2023-03-05T06:55:05;8.33;;;3.93;;
46875;SDS011;32866;50.160;14.768;2023-03-05T06:57:31;7.73;;;4.10;;
46875;SDS011;32866;50.160;14.768;2023-03-05T06:59:56;8.65;;;4.05;;
46875;SDS011;32866;50.160;14.768;2023-03-05T07:02:22;8.20;;;4.25;;
46875;SDS011;32866;50.160;14.768;2023-03-05T07:04:47;4.20;;;3.47;;
46875;SDS011;32866;50.160;14.768;2023-03-05T07:07:13;4.57;;;3.80;;
46875;SDS011;32866;50.160;14.768;2023-03-05T07:09:38;8.52;;;4.07;;
46875;SDS011;32866;50.160;14.768;2023-03-05T07:12:07;7.73;;;4.00;;
46875;SDS011;32866;50.160;14.768;2023-03-05T07:14:36;7.90;;;3.40;;
46875;SDS011;32866;50.160;14.768;2023-03-05T07:17:04;6.13;;;3.97;;
46875;SDS011;32866;50.160;14.768;2023-03-05T07:19:30;6.80;;;3.43;;
46875;SDS011;32866;50.160;14.768;2023-03-05T07:21:56;7.50;;;4.55;;
46875;SDS011;32866;50.160;14.768;2023-03-05T07:24:21;4.85;;;3.25;;
46875;SDS011;32866;50.160;14.768;2023-03-05T07:26:48;8.47;;;3.33;;
46875;SDS011;32866;50.160;14.768;2023-03-05T07:29:13;5.57;;;3.05;;
46875;SDS011;32866;50.160;14.768;2023-03-05T07:31:39;7.03;;;3.65;;
46875;SDS011;32866;50.160;14.768;2023-03-05T07:34:04;5.68;;;3.45;;
46875;SDS011;32866;50.160;14.768;2023-03-05T07:36:31;7.27;;;3.87;;
46875;SDS011;32866;50.160;14.768;2023-03-05T07:38:58;6.20;;;3.77;;
46875;SDS011;32866;50.160;14.768;2023-03-05T07:41:24;11.93;;;4.38;;
46875;SDS011;32866;50.160;14.768;2023-03-05T07:43:50;5.88;;;2.40;;
46875;SDS011;32866;50.160;14.768;2023-03-05T07:46:17;5.97;;;3.93;;
46875;SDS011;32866;50.160;14.768;2023-03-05T07:48:44;6.67;;;3.43;;
46875;SDS011;32866;50.160;14.768;2023-03-05T07:51:11;3.97;;;2.80;;
46875;SDS011;32866;50.160;14.768;2023-03-05T07:53:40;4.23;;;2.83;;
46875;SDS011;32866;50.160;14.768;2023-03-05T07:56:09;6.93;;;3.13;;
46875;SDS011;32866;50.160;14.768;2023-03-05T07:58:35;4.50;;;2.92;;
46875;SDS011;32866;50.160;14.768;2023-03-05T08:01:00;7.43;;;3.40;;
46875;SDS011;32866;50.160;14.768;2023-03-05T08:03:26;7.65;;;3.45;;
46875;SDS011;32866;50.160;14.768;2023-03-05T08:05:51;4.60;;;3.13;;
46875;SDS011;32866;50.160;14.768;2023-03-05T08:08:17;4.38;;;3.05;;
46875;SDS011;32866;50.160;14.768;2023-03-05T08:10:42;5.93;;;2.88;;
46875;SDS011;32866;50.160;14.768;2023-03-05T08:13:08;6.85;;;3.40;;
46875;SDS011;32866;50.160;14.768;2023-03-05T08:15:33;3.33;;;2.10;;
46875;SDS011;32866;50.160;14.768;2023-03-05T08:18:01;5.30;;;2.13;;
46875;SDS011;32866;50.160;14.768;2023-03-05T08:20:27;7.68;;;2.78;;
46875;SDS011;32866;50.160;14.768;2023-03-05T08:22:52;4.45;;;2.28;;
46875;SDS011;32866;50.160;14.768;2023-03-05T08:25:17;4.10;;;2.10;;
46875;SDS011;32866;50.160;14.768;2023-03-05T08:27:44;3.90;;;1.90;;
46875;SDS011;32866;50.160;14.768;2023-03-05T08:30:12;2.70;;;1.50;;
46875;SDS011;32866;50.160;14.768;2023-03-05T08:32:44;2.67;;;1.77;;
46875;SDS011;32866;50.160;14.768;2023-03-05T08:35:10;2.10;;;1.58;;
46875;SDS011;32866;50.160;14.768;2023-03-05T08:37:36;1.67;;;1.50;;
46875;SDS011;32866;50.160;14.768;2023-03-05T08:40:02;6.05;;;1.88;;
46875;SDS011;32866;50.160;14.768;2023-03-05T08:42:28;1.87;;;1.30;;
46875;SDS011;32866;50.160;14.768;2023-03-05T08:44:53;1.27;;;1.05;;
46875;SDS011;32866;50.160;14.768;2023-03-05T08:47:19;1.65;;;1.30;;
46875;SDS011;32866;50.160;14.768;2023-03-05T08:49:45;0.88;;;0.85;;
46875;SDS011;32866;50.160;14.768;2023-03-05T08:52:10;2.75;;;1.30;;
46875;SDS011;32866;50.160;14.768;2023-03-05T08:54:36;2.00;;;1.63;;
46875;SDS011;32866;50.160;14.768;2023-03-05T08:57:02;1.40;;;1.20;;
46875;SDS011;32866;50.160;14.768;2023-03-05T08:59:28;1.05;;;1.05;;
46875;SDS011;32866;50.160;14.768;2023-03-05T09:01:54;2.47;;;1.10;;
46875;SDS011;32866;50.160;14.768;2023-03-05T09:04:19;1.20;;;0.95;;
46875;SDS011;32866;50.160;14.768;2023-03-05T09:06:44;1.02;;;0.82;;
46875;SDS011;32866;50.160;14.768;2023-03-05T09:09:25;2.90;;;1.33;;
46875;SDS011;32866;50.160;14.768;2023-03-05T09:11:50;3.37;;;1.30;;
46875;SDS011;32866;50.160;14.768;2023-03-05T09:14:16;1.42;;;0.80;;
46875;SDS011;32866;50.160;14.768;2023-03-05T09:16:42;1.60;;;1.30;;
46875;SDS011;32866;50.160;14.768;2023-03-05T09:19:07;1.52;;;0.60;;
46875;SDS011;32866;50.160;14.768;2023-03-05T09:21:34;1.90;;;1.07;;
46875;SDS011;32866;50.160;14.768;2023-03-05T09:24:00;2.17;;;0.90;;
46875;SDS011;32866;50.160;14.768;2023-03-05T09:26:25;2.92;;;1.02;;
46875;SDS011;32866;50.160;14.768;2023-03-05T09:28:51;3.10;;;1.70;;
46875;SDS011;32866;50.160;14.768;2023-03-05T09:31:16;1.77;;;1.00;;
46875;SDS011;32866;50.160;14.768;2023-03-05T09:33:42;3.35;;;1.17;;
46875;SDS011;32866;50.160;14.768;2023-03-05T09:36:18;1.38;;;1.17;;
46875;SDS011;32866;50.160;14.768;2023-03-05T09:38:45;0.73;;;0.73;;
46875;SDS011;32866;50.160;14.768;2023-03-05T09:46:52;2.22;;;1.40;;
46875;SDS011;32866;50.160;14.768;2023-03-05T09:51:44;2.10;;;1.27;;
46875;SDS011;32866;50.160;14.768;2023-03-05T09:54:19;1.87;;;1.77;;
46875;SDS011;32866;50.160;14.768;2023-03-05T09:56:55;0.50;;;0.50;;
46875;SDS011;32866;50.160;14.768;2023-03-05T10:02:14;1.33;;;0.68;;
46875;SDS011;32866;50.160;14.768;2023-03-05T10:04:44;0.50;;;0.50;;
46875;SDS011;32866;50.160;14.768;2023-03-05T10:07:20;1.53;;;0.97;;
46875;SDS011;32866;50.160;14.768;2023-03-05T10:09:53;1.17;;;1.00;;
46875;SDS011;32866;50.160;14.768;2023-03-05T10:12:26;1.13;;;1.00;;
46875;SDS011;32866;50.160;14.768;2023-03-05T10:15:03;0.63;;;0.63;;
46875;SDS011;32866;50.160;14.768;2023-03-05T10:21:14;2.30;;;1.30;;
46875;SDS011;32866;50.160;14.768;2023-03-05T10:23:57;1.50;;;1.02;;
46875;SDS011;32866;50.160;14.768;2023-03-05T10:32:16;2.57;;;1.10;;
46875;SDS011;32866;50.160;14.768;2023-03-05T10:37:58;4.57;;;1.70;;
46875;SDS011;32866;50.160;14.768;2023-03-05T10:40:37;0.93;;;0.90;;
46875;SDS011;32866;50.160;14.768;2023-03-05T10:46:00;1.67;;;0.90;;
46875;SDS011;32866;50.160;14.768;2023-03-05T10:51:04;2.47;;;1.93;;
46875;SDS011;32866;50.160;14.768;2023-03-05T10:56:16;2.30;;;1.77;;
46875;SDS011;32866;50.160;14.768;2023-03-05T10:58:45;2.50;;;1.03;;
46875;SDS011;32866;50.160;14.768;2023-03-05T11:03:58;1.55;;;1.02;;
46875;SDS011;32866;50.160;14.768;2023-03-05T11:14:30;1.27;;;1.17;;
46875;SDS011;32866;50.160;14.768;2023-03-05T11:16:58;5.90;;;2.33;;
46875;SDS011;32866;50.160;14.768;2023-03-05T11:25:04;1.57;;;1.40;;
46875;SDS011;32866;50.160;14.768;2023-03-05T11:27:49;6.23;;;2.57;;
46875;SDS011;32866;50.160;14.768;2023-03-05T11:30:26;4.63;;;1.90;;
46875;SDS011;32866;50.160;14.768;2023-03-05T11:33:07;2.20;;;1.42;;
46875;SDS011;32866;50.160;14.768;2023-03-05T11:35:44;2.07;;;1.57;;
46875;SDS011;32866;50.160;14.768;2023-03-05T11:38:16;2.73;;;1.70;;
46875;SDS011;32866;50.160;14.768;2023-03-05T11:40:44;4.00;;;1.50;;
46875;SDS011;32866;50.160;14.768;2023-03-05T11:43:14;1.17;;;1.00;;
46875;SDS011;32866;50.160;14.768;2023-03-05T11:45:42;1.40;;;1.30;;
46875;SDS011;32866;50.160;14.768;2023-03-05T11:50:43;1.60;;;1.23;;
46875;SDS011;32866;50.160;14.768;2023-03-05T11:53:12;3.03;;;1.40;;
46875;SDS011;32866;50.160;14.768;2023-03-05T11:55:43;2.33;;;1.57;;
46875;SDS011;32866;50.160;14.768;2023-03-05T12:01:05;2.43;;;1.23;;
46875;SDS011;32866;50.160;14.768;2023-03-05T12:08:37;1.60;;;1.50;;
46875;SDS011;32866;50.160;14.768;2023-03-05T12:11:11;2.77;;;1.47;;
46875;SDS011;32866;50.160;14.768;2023-03-05T12:13:45;2.97;;;1.50;;
46875;SDS011;32866;50.160;14.768;2023-03-05T12:21:33;2.20;;;1.50;;
46875;SDS011;32866;50.160;14.768;2023-03-05T12:24:03;1.23;;;1.13;;
46875;SDS011;32866;50.160;14.768;2023-03-05T12:32:49;3.57;;;2.20;;
46875;SDS011;32866;50.160;14.768;2023-03-05T12:42:43;2.53;;;2.13;;
46875;SDS011;32866;50.160;14.768;2023-03-05T12:45:32;5.63;;;2.00;;
46875;SDS011;32866;50.160;14.768;2023-03-05T12:58:16;2.85;;;1.90;;
46875;SDS011;32866;50.160;14.768;2023-03-05T13:00:43;2.33;;;1.80;;
46875;SDS011;32866;50.160;14.768;2023-03-05T13:03:17;2.33;;;2.07;;
46875;SDS011;32866;50.160;14.768;2023-03-05T13:05:54;3.37;;;2.00;;
46875;SDS011;32866;50.160;14.768;2023-03-05T13:13:17;1.77;;;1.67;;
46875;SDS011;32866;50.160;14.768;2023-03-05T13:15:44;1.92;;;1.58;;
46875;SDS011;32866;50.160;14.768;2023-03-05T13:18:15;4.13;;;2.30;;
46875;SDS011;32866;50.160;14.768;2023-03-05T13:20:47;3.42;;;1.88;;
46875;SDS011;32866;50.160;14.768;2023-03-05T13:23:26;2.47;;;1.70;;
46875;SDS011;32866;50.160;14.768;2023-03-05T13:26:07;3.63;;;2.20;;
46875;SDS011;32866;50.160;14.768;2023-03-05T13:28:39;4.80;;;2.40;;
46875;SDS011;32866;50.160;14.768;2023-03-05T13:31:16;3.37;;;2.00;;
46875;SDS011;32866;50.160;14.768;2023-03-05T13:36:21;2.73;;;1.70;;
46875;SDS011;32866;50.160;14.768;2023-03-05T13:38:49;2.40;;;1.43;;
46875;SDS011;32866;50.160;14.768;2023-03-05T13:41:19;2.83;;;1.67;;
46875;SDS011;32866;50.160;14.768;2023-03-05T13:43:48;2.50;;;1.77;;
46875;SDS011;32866;50.160;14.768;2023-03-05T13:46:34;5.70;;;2.93;;
46875;SDS011;32866;50.160;14.768;2023-03-05T13:51:46;2.87;;;1.90;;
46875;SDS011;32866;50.160;14.768;2023-03-05T13:54:14;2.40;;;1.50;;
46875;SDS011;32866;50.160;14.768;2023-03-05T13:57:00;3.43;;;2.13;;
46875;SDS011;32866;50.160;14.768;2023-03-05T13:59:30;4.93;;;2.20;;
46875;SDS011;32866;50.160;14.768;2023-03-05T14:01:58;2.87;;;2.00;;
46875;SDS011;32866;50.160;14.768;2023-03-05T14:04:45;4.05;;;2.17;;
46875;SDS011;32866;50.160;14.768;2023-03-05T14:10:03;3.73;;;2.70;;
46875;SDS011;32866;50.160;14.768;2023-03-05T14:12:47;3.10;;;2.13;;
46875;SDS011;32866;50.160;14.768;2023-03-05T14:15:25;2.30;;;2.03;;
46875;SDS011;32866;50.160;14.768;2023-03-05T14:18:06;2.80;;;1.90;;
46875;SDS011;32866;50.160;14.768;2023-03-05T14:20:34;4.70;;;2.33;;
46875;SDS011;32866;50.160;14.768;2023-03-05T14:23:00;3.20;;;2.05;;
46875;SDS011;32866;50.160;14.768;2023-03-05T14:25:45;4.23;;;2.77;;
46875;SDS011;32866;50.160;14.768;2023-03-05T14:30:46;3.40;;;2.00;;
46875;SDS011;32866;50.160;14.768;2023-03-05T14:33:13;4.87;;;2.50;;
46875;SDS011;32866;50.160;14.768;2023-03-05T14:38:04;2.53;;;2.00;;
46875;SDS011;32866;50.160;14.768;2023-03-05T14:40:33;2.13;;;1.93;;
46875;SDS011;32866;50.160;14.768;2023-03-05T14:45:38;4.97;;;2.50;;
46875;SDS011;32866;50.160;14.768;2023-03-05T14:48:07;4.33;;;2.60;;
46875;SDS011;32866;50.160;14.768;2023-03-05T14:50:34;5.10;;;2.53;;
46875;SDS011;32866;50.160;14.768;2023-03-05T14:53:06;5.37;;;2.13;;
46875;SDS011;32866;50.160;14.768;2023-03-05T14:55:34;3.70;;;1.80;;
46875;SDS011;32866;50.160;14.768;2023-03-05T14:58:12;3.40;;;2.23;;
46875;SDS011;32866;50.160;14.768;2023-03-05T15:00:39;3.43;;;2.57;;
46875;SDS011;32866;50.160;14.768;2023-03-05T15:03:05;2.70;;;2.13;;
46875;SDS011;32866;50.160;14.768;2023-03-05T15:05:31;3.33;;;2.28;;
46875;SDS011;32866;50.160;14.768;2023-03-05T15:07:57;6.55;;;3.20;;
46875;SDS011;32866;50.160;14.768;2023-03-05T15:10:23;8.38;;;3.45;;
46875;SDS011;32866;50.160;14.768;2023-03-05T15:12:50;6.33;;;2.87;;
46875;SDS011;32866;50.160;14.768;2023-03-05T15:15:17;8.60;;;4.40;;
46875;SDS011;32866;50.160;14.768;2023-03-05T15:17:44;6.77;;;4.00;;
46875;SDS011;32866;50.160;14.768;2023-03-05T15:20:19;5.07;;;2.70;;
46875;SDS011;32866;50.160;14.768;2023-03-05T15:22:46;4.27;;;2.47;;
46875;SDS011;32866;50.160;14.768;2023-03-05T15:25:11;7.03;;;2.78;;
46875;SDS011;32866;50.160;14.768;2023-03-05T15:30:23;5.83;;;2.50;;
46875;SDS011;32866;50.160;14.768;2023-03-05T15:32:55;4.30;;;2.60;;
46875;SDS011;32866;50.160;14.768;2023-03-05T15:35:22;4.10;;;2.37;;
46875;SDS011;32866;50.160;14.768;2023-03-05T15:37:48;2.47;;;1.50;;
46875;SDS011;32866;50.160;14.768;2023-03-05T15:40:14;2.50;;;1.30;;
46875;SDS011;32866;50.160;14.768;2023-03-05T15:42:40;3.22;;;1.67;;
46875;SDS011;32866;50.160;14.768;2023-03-05T15:45:05;3.78;;;1.92;;
46875;SDS011;32866;50.160;14.768;2023-03-05T15:47:31;2.30;;;1.70;;
46875;SDS011;32866;50.160;14.768;2023-03-05T15:49:56;5.35;;;3.10;;
46875;SDS011;32866;50.160;14.768;2023-03-05T15:52:22;3.55;;;1.67;;
46875;SDS011;32866;50.160;14.768;2023-03-05T15:54:47;4.55;;;2.75;;
46875;SDS011;32866;50.160;14.768;2023-03-05T15:57:13;4.15;;;1.77;;
46875;SDS011;32866;50.160;14.768;2023-03-05T15:59:38;2.22;;;1.70;;
46875;SDS011;32866;50.160;14.768;2023-03-05T16:02:04;5.72;;;2.28;;
46875;SDS011;32866;50.160;14.768;2023-03-05T16:04:30;3.97;;;1.80;;
46875;SDS011;32866;50.160;14.768;2023-03-05T16:06:56;2.97;;;1.80;;
46875;SDS011;32866;50.160;14.768;2023-03-05T16:09:28;2.63;;;1.60;;
46875;SDS011;32866;50.160;14.768;2023-03-05T16:11:56;2.47;;;1.80;;
46875;SDS011;32866;50.160;14.768;2023-03-05T16:14:23;3.45;;;1.85;;
46875;SDS011;32866;50.160;14.768;2023-03-05T16:16:51;2.67;;;2.30;;
46875;SDS011;32866;50.160;14.768;2023-03-05T16:19:19;4.47;;;2.53;;
46875;SDS011;32866;50.160;14.768;2023-03-05T16:21:47;4.20;;;2.43;;
46875;SDS011;32866;50.160;14.768;2023-03-05T16:24:12;4.35;;;2.30;;
46875;SDS011;32866;50.160;14.768;2023-03-05T16:26:38;4.47;;;2.50;;
46875;SDS011;32866;50.160;14.768;2023-03-05T16:29:05;4.00;;;2.77;;
46875;SDS011;32866;50.160;14.768;2023-03-05T16:31:31;3.83;;;2.53;;
46875;SDS011;32866;50.160;14.768;2023-03-05T16:33:58;6.17;;;3.07;;
46875;SDS011;32866;50.160;14.768;2023-03-05T16:38:51;3.80;;;2.37;;